Hauptseite
METAR-TAF:

METAR-TAF

Flughäfen :

Farnborough Airfield

Farnborough, England

Breite: 51-17N, Länge: 000-46W, Höhe: 65 m

Beobachtung

Neuester Wetterbericht von vor 39 Minuten, um 11:20 UTC
Wind 11 kt aus Süd, variierte zwischen Südost und Süd/Südwest
Temperatur 13°C
Luftfeuchtigkeit 72%
Luftdruck 1022 hPa
Sichtweite 10 km oder mehr
Leicht bewölkt in der Höhe von 1600 ft

METAR: EGLF 141120Z 19011KT 130V210 9999 FEW016 13/08 Q1022

Zeit: 11:59 (11:59 UTC)

Prognose

Neuester Wetterbericht von vor 55 Minuten, um 11:04 UTC
Gültige Prognose vom 14 um 12 UTC bis 14 um 21 UTC
Wind 10 kt aus Süd
Sichtweite 10 km oder mehr
Aufgelockert bewölkt in der Höhe von 2000 ft
Zeitweise
vom 14 um 19 UTC bis 14 um 21 UTC
Sichtweite: 8000 m
Durchbrochene Bewölkung in der Höhe von 1200 ft

TAF: EGLF 141104Z 1412/1421 19010KT 9999 SCT020 TEMPO 1419/1421 8000 BKN012

Wetterbeobachtungen und Prognosen von mehr als 4000 Flughäfen (METAR und TAF Bericht).

Die verfügbaren Stationen werden durch gelbe und rote Markierungen auf der Karte dargestellt.

Führen Sie die Maus auf sie, um den Namen der Station zu sehen.

Darauf klicken, um die Beobachtung von Wetterbeobachtungen und Prognosen zu sehen.

Um die Karte zu ändern : klicken Sie auf den grünen Tasten mit einem schwarzen Kreuz Zum Vergrößern, auf den grünen Button mit einem Gedankenstrich zu verkleinern, oder auf die grünen Pfeile für benachbarte Karten.


METAR-TAF: